Time;durP1;ratioP1;P1;durP2;ratioP2;P2;SDS_P1;SDS_P2;PMS_P1;PMS_P2;Temp;Humidity;BMP_temperature;BMP_pressure;BME280_temperature;BME280_humidity;BME280_pressure;Samples;Min_cycle;Max_cycle;Signal;HPM_P1;HPM_P2
2021/06/18 00:02:22;;;;;;;;;;;;;;;20.29;79.72;99967.88;5118511;28;19967;-73
2021/06/18 00:04:47;;;;;;;;;;;;;;;20.24;80.94;99975.78;5122975;28;20254;-73
2021/06/18 00:07:13;;;;;;;;;;;;;;;20.48;79.25;99964.22;5119690;28;19976;-73
2021/06/18 00:09:38;;;;;;;;;;;;;;;20.39;80.08;99960.16;5119895;28;19984;-73
2021/06/18 00:12:04;;;;;;;;;;;;;;;20.44;79.73;99951.44;5116683;28;19959;-73
2021/06/18 00:14:29;;;;;;;;;;;;;;;20.56;78.63;99949.66;5116097;28;19957;-73
2021/06/18 00:16:55;;;;;;;;;;;;;;;20.43;78.65;99939.84;5116781;28;19998;-73
2021/06/18 00:19:20;;;;;;;;;;;;;;;20.34;79.37;99950.03;5116149;28;19956;-73
2021/06/18 00:21:46;;;;;;;;;;;;;;;20.12;81.61;99948.78;5118985;28;19951;-74
2021/06/18 00:24:11;;;;;;;;;;;;;;;20.08;82.47;99951.09;5122569;28;19976;-73
2021/06/18 00:26:36;;;;;;;;;;;;;;;20.18;81.47;99953.28;5119523;28;19946;-73
2021/06/18 00:29:02;;;;;;;;;;;;;;;20.27;80.20;99945.78;5123458;28;19992;-73
2021/06/18 00:31:27;;;;;;;;;;;;;;;20.30;80.71;99940.78;5120912;28;20221;-73
2021/06/18 00:33:52;;;;;;;;;;;;;;;20.38;80.11;99940.50;5120000;28;19958;-73
2021/06/18 00:36:18;;;;;;;;;;;;;;;20.20;81.79;99942.31;5123018;28;19960;-73
2021/06/18 00:38:43;;;;;;;;;;;;;;;20.48;80.26;99933.81;5117161;28;20235;-73
2021/06/18 00:41:09;;;;;;;;;;;;;;;20.28;81.11;99932.09;5115370;28;19946;-73
2021/06/18 00:43:34;;;;;;;;;;;;;;;20.20;81.94;99929.69;5117419;28;20030;-73
2021/06/18 00:46:00;;;;;;;;;;;;;;;20.31;80.76;99923.59;5112722;28;19990;-73
2021/06/18 00:48:25;;;;;;;;;;;;;;;20.19;81.67;99919.97;5114827;28;24557;-73
2021/06/18 00:50:51;;;;;;;;;;;;;;;20.22;81.95;99921.41;5122899;27;24630;-73
2021/06/18 00:53:17;;;;;;;;;;;;;;;20.18;81.49;99907.59;5114022;28;20033;-73
2021/06/18 00:55:45;;;;;;;;;;;;;;;20.10;82.25;99910.56;5115563;28;19924;-73
2021/06/18 00:58:10;;;;;;;;;;;;;;;19.98;82.52;99906.94;5119633;28;19981;-73
2021/06/18 01:00:36;;;;;;;;;;;;;;;20.18;81.18;99912.97;5122371;28;19967;-73
2021/06/18 01:03:01;;;;;;;;;;;;;;;20.35;79.04;99916.72;5118891;28;20758;-73
2021/06/18 01:05:26;;;;;;;;;;;;;;;20.19;80.61;99922.66;5121829;28;20007;-73
2021/06/18 01:08:01;;;;;;;;;;;;;;;20.20;79.72;99915.44;5113426;28;20087;-73
2021/06/18 01:10:45;;;;;;;;;;;;;;;20.09;80.66;99907.03;5115700;28;20230;-73
2021/06/18 01:13:29;;;;;;;;;;;;;;;20.08;80.87;99912.63;5122092;28;19956;-73
2021/06/18 01:15:57;;;;;;;;;;;;;;;20.04;80.75;99916.81;5118126;28;19991;-73
2021/06/18 01:18:26;;;;;;;;;;;;;;;19.92;82.05;99916.69;5135662;28;19981;-73
2021/06/18 01:21:12;;;;;;;;;;;;;;;19.94;81.88;99909.22;5113563;28;20035;-73
2021/06/18 01:23:56;;;;;;;;;;;;;;;19.99;81.74;99913.94;5102861;28;19967;-73
2021/06/18 01:26:24;;;;;;;;;;;;;;;19.93;81.88;99912.13;5102606;28;20093;-73
2021/06/18 01:28:52;;;;;;;;;;;;;;;20.04;80.98;99917.63;5108595;28;20354;-73
2021/06/18 01:31:20;;;;;;;;;;;;;;;20.12;80.71;99913.84;5119021;28;20061;-73
2021/06/18 01:33:47;;;;;;;;;;;;;;;20.11;81.04;99914.06;5113403;28;20038;-73
2021/06/18 01:36:14;;;;;;;;;;;;;;;20.08;81.14;99915.31;5097511;28;20247;-73
2021/06/18 01:38:42;;;;;;;;;;;;;;;20.11;81.40;99920.25;5079771;28;19981;-73
2021/06/18 01:41:10;;;;;;;;;;;;;;;20.23;80.75;99921.19;5118458;28;20258;-73
2021/06/18 01:43:36;;;;;;;;;;;;;;;20.33;80.11;99920.69;5121631;28;19983;-73
2021/06/18 01:46:02;;;;;;;;;;;;;;;20.16;81.21;99917.72;5121513;28;20228;-73
2021/06/18 01:48:29;;;;;;;;;;;;;;;20.10;81.18;99918.63;5119232;28;20159;-73
2021/06/18 01:50:56;;;;;;;;;;;;;;;19.91;81.46;99925.78;5122471;28;20140;-73
2021/06/18 01:53:23;;;;;;;;;;;;;;;19.80;82.16;99936.41;5117929;28;19984;-73
2021/06/18 01:55:49;;;;;;;;;;;;;;;19.85;81.97;99934.72;5120981;28;20075;-73
2021/06/18 01:58:16;;;;;;;;;;;;;;;19.63;82.79;99941.47;5125454;28;19939;-73
2021/06/18 02:00:43;;;;;;;;;;;;;;;19.54;83.39;99935.53;5122763;28;19971;-73
2021/06/18 02:03:09;;;;;;;;;;;;;;;19.50;83.09;99944.19;5097572;28;20179;-73
2021/06/18 02:05:37;;;;;;;;;;;;;;;19.58;82.56;99947.47;5120656;28;20054;-73
2021/06/18 02:08:03;;;;;;;;;;;;;;;19.89;80.33;99941.31;5121166;28;20013;-72
2021/06/18 02:10:28;;;;;;;;;;;;;;;19.86;80.41;99935.56;5125294;28;19953;-73
2021/06/18 02:12:55;;;;;;;;;;;;;;;19.76;80.51;99931.44;5121711;28;19960;-73
2021/06/18 02:15:21;;;;;;;;;;;;;;;19.74;80.64;99930.03;5118837;28;19960;-73
2021/06/18 02:17:47;;;;;;;;;;;;;;;19.57;81.68;99940.47;5121029;28;20005;-73
2021/06/18 02:20:14;;;;;;;;;;;;;;;19.57;82.41;99935.09;5125530;28;19987;-73
2021/06/18 02:22:39;;;;;;;;;;;;;;;19.56;82.30;99927.25;5123164;28;19980;-73
2021/06/18 02:25:06;;;;;;;;;;;;;;;19.56;81.77;99930.75;5118719;28;19983;-73
2021/06/18 02:27:33;;;;;;;;;;;;;;;19.63;81.37;99934.22;5125358;28;20219;-73
2021/06/18 02:29:58;;;;;;;;;;;;;;;19.73;80.43;99944.50;5120630;28;20170;-73
2021/06/18 02:32:25;;;;;;;;;;;;;;;19.78;80.23;99936.63;5123133;28;19960;-73
2021/06/18 02:34:50;;;;;;;;;;;;;;;19.81;80.08;99930.84;5125347;28;20055;-73
2021/06/18 02:37:15;;;;;;;;;;;;;;;19.84;80.00;99929.56;5122982;28;19960;-73
2021/06/18 02:39:43;;;;;;;;;;;;;;;19.95;79.44;99920.81;5122937;28;19987;-73
2021/06/18 02:42:08;;;;;;;;;;;;;;;20.15;77.95;99926.03;5125358;28;19964;-73
2021/06/18 02:44:34;;;;;;;;;;;;;;;20.05;77.75;99926.50;5122474;28;19992;-73
2021/06/18 02:47:11;;;;;;;;;;;;;;;19.97;78.21;99921.41;5123926;28;20266;-73
2021/06/18 02:50:09;;;;;;;;;;;;;;;19.99;77.95;99920.16;5124840;28;20025;-73
2021/06/18 02:52:37;;;;;;;;;;;;;;;19.85;78.60;99915.91;5083845;28;19965;-73
2021/06/18 02:55:02;;;;;;;;;;;;;;;19.72;79.40;99924.03;5124542;28;19926;-73
2021/06/18 02:57:30;;;;;;;;;;;;;;;19.70;79.46;99918.88;5122688;28;20256;-73
2021/06/18 03:00:06;;;;;;;;;;;;;;;19.84;78.56;99914.28;5107291;28;19973;-73
2021/06/18 03:02:36;;;;;;;;;;;;;;;19.71;79.18;99917.84;5123659;28;19961;-73
2021/06/18 03:05:04;;;;;;;;;;;;;;;19.84;78.70;99916.97;5124709;28;20055;-73
2021/06/18 03:07:30;;;;;;;;;;;;;;;19.86;78.27;99908.69;5120140;28;19985;-73
2021/06/18 03:09:59;;;;;;;;;;;;;;;19.93;77.98;99914.81;5124784;28;20164;-73
2021/06/18 03:12:25;;;;;;;;;;;;;;;20.04;77.06;99914.94;5122837;28;19955;-73
2021/06/18 03:14:52;;;;;;;;;;;;;;;20.04;76.92;99916.81;5121311;28;20209;-73
2021/06/18 03:17:19;;;;;;;;;;;;;;;19.99;77.66;99922.00;5122649;28;20206;-73
2021/06/18 03:19:50;;;;;;;;;;;;;;;19.99;77.23;99922.84;5124047;28;20025;-73
2021/06/18 03:22:16;;;;;;;;;;;;;;;20.07;77.45;99924.44;5120570;28;19960;-73
2021/06/18 03:24:44;;;;;;;;;;;;;;;19.94;78.93;99919.16;5117860;28;20318;-73
2021/06/18 03:27:10;;;;;;;;;;;;;;;19.91;78.97;99914.22;5098194;28;19983;-73
2021/06/18 03:29:37;;;;;;;;;;;;;;;19.97;78.49;99911.47;5119392;28;20002;-73
2021/06/18 03:32:04;;;;;;;;;;;;;;;20.02;78.83;99902.75;5104989;28;19947;-73
2021/06/18 03:34:30;;;;;;;;;;;;;;;20.08;78.24;99904.56;5120773;28;19981;-73
2021/06/18 03:36:57;;;;;;;;;;;;;;;20.25;77.25;99908.34;5115754;28;19945;-73
2021/06/18 03:39:23;;;;;;;;;;;;;;;20.13;78.19;99910.09;5120315;28;19959;-73
2021/06/18 03:41:48;;;;;;;;;;;;;;;20.12;78.63;99913.03;5123713;28;20225;-73
2021/06/18 03:44:17;;;;;;;;;;;;;;;20.08;78.70;99923.38;5116815;28;20315;-73
2021/06/18 03:46:43;;;;;;;;;;;;;;;20.05;78.55;99924.66;5112240;28;19981;-73
2021/06/18 03:49:09;;;;;;;;;;;;;;;19.96;78.49;99917.91;5123841;28;20058;-73
2021/06/18 03:51:35;;;;;;;;;;;;;;;20.08;78.28;99920.69;5123426;28;19954;-73
2021/06/18 03:54:01;;;;;;;;;;;;;;;20.06;77.54;99923.59;5117923;28;20043;-73
2021/06/18 03:56:27;;;;;;;;;;;;;;;20.17;77.66;99927.44;5116547;28;20166;-73
2021/06/18 03:58:53;;;;;;;;;;;;;;;20.06;77.63;99925.47;5123048;28;20122;-73
2021/06/18 04:01:19;;;;;;;;;;;;;;;20.18;77.85;99923.72;5119879;28;19978;-73
2021/06/18 04:03:49;;;;;;;;;;;;;;;20.25;77.16;99924.47;5120113;28;20270;-73
2021/06/18 04:06:15;;;;;;;;;;;;;;;20.22;77.66;99922.22;5123182;28;20223;-73
2021/06/18 04:08:41;;;;;;;;;;;;;;;20.21;78.08;99925.97;5121701;28;20285;-73
2021/06/18 04:11:07;;;;;;;;;;;;;;;20.14;78.87;99921.69;5124834;28;19968;-73
2021/06/18 04:13:34;;;;;;;;;;;;;;;20.23;79.00;99917.69;5118980;28;19982;-73
2021/06/18 04:16:00;;;;;;;;;;;;;;;20.35;78.84;99921.28;5118202;28;20265;-73
2021/06/18 04:18:26;;;;;;;;;;;;;;;20.49;78.07;99922.84;5123259;28;19971;-73
2021/06/18 04:20:51;;;;;;;;;;;;;;;20.45;78.90;99923.50;5121313;28;19972;-73
2021/06/18 04:23:17;;;;;;;;;;;;;;;20.59;78.21;99919.63;5116489;28;19976;-73
2021/06/18 04:25:43;;;;;;;;;;;;;;;20.65;77.99;99918.75;5116929;28;20008;-73
2021/06/18 04:28:08;;;;;;;;;;;;;;;20.70;78.07;99921.59;5115538;28;20142;-73
2021/06/18 04:30:33;;;;;;;;;;;;;;;20.87;77.48;99917.28;5113811;28;20262;-73
2021/06/18 04:32:59;;;;;;;;;;;;;;;21.04;76.59;99921.00;5116495;28;19945;-73
2021/06/18 04:35:24;;;;;;;;;;;;;;;21.04;76.49;99920.19;5121135;28;19968;-73
2021/06/18 04:37:49;;;;;;;;;;;;;;;21.24;76.87;99917.28;5122769;28;19940;-73
2021/06/18 04:40:15;;;;;;;;;;;;;;;21.27;76.10;99900.66;5117403;28;19984;-73
2021/06/18 04:42:40;;;;;;;;;;;;;;;21.29;75.66;99912.84;5118956;28;19946;-73
2021/06/18 04:45:06;;;;;;;;;;;;;;;21.38;74.58;99905.28;5120803;28;19988;-73
2021/06/18 04:47:32;;;;;;;;;;;;;;;21.44;74.97;99906.22;5115823;28;20300;-73
2021/06/18 04:49:57;;;;;;;;;;;;;;;21.70;73.60;99905.00;5116153;28;19988;-73
2021/06/18 04:52:23;;;;;;;;;;;;;;;21.84;73.00;99895.66;5115845;28;19960;-73
2021/06/18 04:54:53;;;;;;;;;;;;;;;21.96;73.23;99904.63;5116098;28;20001;-73
2021/06/18 04:57:18;;;;;;;;;;;;;;;22.15;71.37;99905.38;5120911;28;20025;-73
2021/06/18 04:59:43;;;;;;;;;;;;;;;22.36;71.31;99907.50;5122077;28;20265;-73
2021/06/18 05:02:09;;;;;;;;;;;;;;;22.36;71.79;99912.06;5116072;28;19967;-73
2021/06/18 05:04:34;;;;;;;;;;;;;;;22.52;70.88;99917.59;5114385;28;19995;-73
2021/06/18 05:06:59;;;;;;;;;;;;;;;22.56;71.11;99915.22;5115520;28;19972;-73
2021/06/18 05:09:24;;;;;;;;;;;;;;;22.77;71.08;99921.91;5116285;28;19988;-73
2021/06/18 05:11:50;;;;;;;;;;;;;;;23.09;70.66;99916.94;5114968;28;19960;-74
2021/06/18 05:14:15;;;;;;;;;;;;;;;23.18;67.39;99920.91;5114872;28;19992;-73
2021/06/18 05:16:41;;;;;;;;;;;;;;;23.01;68.95;99917.31;5116882;28;19960;-73
2021/06/18 05:19:07;;;;;;;;;;;;;;;23.05;69.23;99922.00;5122543;28;20033;-73
2021/06/18 05:21:32;;;;;;;;;;;;;;;23.19;67.72;99923.38;5104931;28;20166;-73
2021/06/18 05:23:58;;;;;;;;;;;;;;;23.28;66.53;99921.13;5102652;28;19979;-73
2021/06/18 05:26:23;;;;;;;;;;;;;;;23.34;67.10;99906.63;5116602;28;20481;-73
2021/06/18 05:28:48;;;;;;;;;;;;;;;23.64;65.55;99922.63;5115598;28;19976;-73
2021/06/18 05:31:14;;;;;;;;;;;;;;;24.10;64.99;99913.44;5114983;28;19964;-73
2021/06/18 05:33:39;;;;;;;;;;;;;;;24.47;65.34;99911.03;5120200;28;20015;-72
2021/06/18 05:36:04;;;;;;;;;;;;;;;24.90;62.66;99906.75;5117185;28;20321;-73
2021/06/18 05:38:29;;;;;;;;;;;;;;;25.25;62.33;99913.72;5119789;28;19972;-72
2021/06/18 05:40:55;;;;;;;;;;;;;;;25.18;61.25;99908.50;5120125;28;20269;-72
2021/06/18 05:43:20;;;;;;;;;;;;;;;25.35;62.68;99913.81;5118607;28;19983;-72
2021/06/18 05:45:45;;;;;;;;;;;;;;;25.50;60.86;99911.28;5119122;28;20046;-73
2021/06/18 05:48:11;;;;;;;;;;;;;;;25.60;60.76;99905.94;5119892;28;19980;-73
2021/06/18 05:50:36;;;;;;;;;;;;;;;25.92;61.49;99913.31;5119234;28;20224;-73
2021/06/18 05:53:01;;;;;;;;;;;;;;;26.17;58.21;99904.59;5120428;28;20336;-73
2021/06/18 05:55:27;;;;;;;;;;;;;;;25.87;59.17;99907.84;5118432;28;19981;-72
2021/06/18 05:57:52;;;;;;;;;;;;;;;26.06;58.94;99903.69;5118976;28;19963;-72
2021/06/18 06:00:18;;;;;;;;;;;;;;;26.55;58.61;99903.50;5119990;28;20297;-72
2021/06/18 06:02:44;;;;;;;;;;;;;;;26.89;57.13;99891.19;5118288;28;20260;-73
2021/06/18 06:05:09;;;;;;;;;;;;;;;27.32;55.96;99891.91;5118866;28;20234;-72
2021/06/18 06:07:35;;;;;;;;;;;;;;;27.35;54.43;99889.47;5119416;28;19979;-73
2021/06/18 06:10:00;;;;;;;;;;;;;;;27.71;54.24;99895.00;5117322;28;19980;-72
2021/06/18 06:12:25;;;;;;;;;;;;;;;27.65;55.55;99894.19;5117287;28;19978;-73
2021/06/18 06:14:51;;;;;;;;;;;;;;;27.83;54.16;99892.00;5110035;28;19968;-73
2021/06/18 06:17:16;;;;;;;;;;;;;;;27.30;53.93;99891.38;5108280;28;19987;-73
2021/06/18 06:19:41;;;;;;;;;;;;;;;27.41;52.44;99898.47;5108664;28;19983;-72
2021/06/18 06:22:07;;;;;;;;;;;;;;;27.29;51.65;99887.00;5109262;28;19968;-72
2021/06/18 06:24:32;;;;;;;;;;;;;;;27.56;51.76;99892.22;5104143;28;20007;-73
2021/06/18 06:26:57;;;;;;;;;;;;;;;27.48;51.64;99895.47;5102786;28;20032;-72
2021/06/18 06:29:23;;;;;;;;;;;;;;;27.48;51.05;99893.59;5108328;28;20150;-73
2021/06/18 06:31:48;;;;;;;;;;;;;;;27.48;52.07;99888.13;5109412;28;20022;-73
2021/06/18 06:34:13;;;;;;;;;;;;;;;27.11;52.21;99891.03;5108499;28;19987;-72
2021/06/18 06:36:39;;;;;;;;;;;;;;;27.21;53.29;99882.91;5108661;28;20039;-72
2021/06/18 06:39:04;;;;;;;;;;;;;;;26.92;53.57;99876.25;5108679;28;20138;-72
2021/06/18 06:41:30;;;;;;;;;;;;;;;27.74;52.67;99882.75;5102598;28;20153;-73
2021/06/18 06:43:55;;;;;;;;;;;;;;;28.53;50.41;99868.56;5102245;28;19976;-73
2021/06/18 06:46:21;;;;;;;;;;;;;;;28.50;47.93;99872.66;5106895;28;19980;-73
2021/06/18 06:48:47;;;;;;;;;;;;;;;28.65;48.90;99866.34;5107054;28;20510;-72
2021/06/18 06:51:12;;;;;;;;;;;;;;;28.39;48.10;99867.50;5107256;28;19963;-72
2021/06/18 06:53:38;;;;;;;;;;;;;;;28.76;49.56;99858.94;5106180;28;20047;-73
2021/06/18 06:56:03;;;;;;;;;;;;;;;29.29;47.65;99857.34;5104359;28;20270;-73
2021/06/18 06:58:28;;;;;;;;;;;;;;;29.60;46.61;99851.69;5102642;28;20506;-73
2021/06/18 07:00:53;;;;;;;;;;;;;;;28.71;47.98;99846.16;5103997;28;20153;-73
2021/06/18 07:03:19;;;;;;;;;;;;;;;29.29;47.59;99843.72;5104115;28;19990;-73
2021/06/18 07:05:44;;;;;;;;;;;;;;;29.78;45.97;99846.38;5104515;28;20146;-73
2021/06/18 07:08:20;;;;;;;;;;;;;;;30.08;45.20;99836.28;5103514;28;19980;-72
2021/06/18 07:10:45;;;;;;;;;;;;;;;30.12;45.75;99840.06;5104236;28;20031;-73
2021/06/18 07:13:10;;;;;;;;;;;;;;;30.36;44.51;99843.66;5103994;28;19967;-73
2021/06/18 07:15:36;;;;;;;;;;;;;;;30.18;44.82;99833.47;5103645;28;19984;-73
2021/06/18 07:18:01;;;;;;;;;;;;;;;29.76;45.31;99839.56;5103867;28;20250;-77
2021/06/18 07:20:26;;;;;;;;;;;;;;;28.97;46.04;99835.16;5104011;28;19965;-66
2021/06/18 07:22:52;;;;;;;;;;;;;;;28.87;48.52;99838.75;5103772;28;20009;-65
2021/06/18 07:25:17;;;;;;;;;;;;;;;28.37;48.24;99826.94;5103626;28;20135;-65
2021/06/18 07:27:42;;;;;;;;;;;;;;;28.66;49.63;99829.00;5102329;28;19972;-66
2021/06/18 07:30:08;;;;;;;;;;;;;;;28.95;49.05;99829.97;5103621;28;20015;-68
2021/06/18 07:32:33;;;;;;;;;;;;;;;29.20;47.66;99827.13;5100650;28;19961;-67
2021/06/18 07:34:59;;;;;;;;;;;;;;;29.24;47.57;99817.28;5103713;28;19984;-68
2021/06/18 07:37:24;;;;;;;;;;;;;;;29.41;46.99;99822.34;5103545;28;20039;-68
2021/06/18 07:39:49;;;;;;;;;;;;;;;29.50;46.71;99808.94;5102994;28;19980;-67
2021/06/18 07:42:14;;;;;;;;;;;;;;;29.29;46.70;99819.16;5103371;28;20107;-67
2021/06/18 07:44:40;;;;;;;;;;;;;;;29.32;46.74;99817.78;5103081;28;19987;-68
2021/06/18 07:47:05;;;;;;;;;;;;;;;29.51;46.29;99814.13;5103535;28;20051;-67
2021/06/18 07:49:31;;;;;;;;;;;;;;;29.82;44.75;99819.31;5103249;28;20146;-68
2021/06/18 07:51:56;;;;;;;;;;;;;;;30.33;44.56;99811.47;5103634;28;20041;-67
2021/06/18 07:54:22;;;;;;;;;;;;;;;30.59;42.60;99809.28;5102690;28;19984;-67
2021/06/18 07:56:47;;;;;;;;;;;;;;;30.72;42.21;99810.47;5101967;28;19967;-71
2021/06/18 07:59:13;;;;;;;;;;;;;;;30.97;42.22;99807.38;5102723;28;19980;-72
2021/06/18 08:01:38;;;;;;;;;;;;;;;31.25;40.15;99810.31;5101778;28;19967;-72
2021/06/18 08:04:03;;;;;;;;;;;;;;;31.15;41.45;99804.97;5102868;28;20010;-72
2021/06/18 08:06:29;;;;;;;;;;;;;;;30.90;39.97;99804.22;5101497;28;19991;-72
2021/06/18 08:08:54;;;;;;;;;;;;;;;31.01;40.66;99800.22;5101399;28;19983;-72
2021/06/18 08:11:19;;;;;;;;;;;;;;;31.38;40.34;99806.84;5101774;28;20250;-72
2021/06/18 08:13:44;;;;;;;;;;;;;;;31.33;39.25;99801.44;5102712;28;20004;-72
2021/06/18 08:16:10;;;;;;;;;;;;;;;31.51;40.79;99797.06;5102795;28;19968;-72
2021/06/18 08:18:35;;;;;;;;;;;;;;;31.54;39.75;99796.44;5102582;28;20405;-73
2021/06/18 08:21:01;;;;;;;;;;;;;;;31.70;39.50;99798.66;5103214;28;19971;-73
2021/06/18 08:23:26;;;;;;;;;;;;;;;31.93;38.25;99796.06;5101180;28;20177;-72
2021/06/18 08:25:52;;;;;;;;;;;;;;;32.12;38.81;99790.50;5102642;28;19972;-72
2021/06/18 08:28:17;;;;;;;;;;;;;;;32.33;39.47;99787.13;5104611;28;20032;-70
2021/06/18 08:30:43;;;;;;;;;;;;;;;32.40;38.09;99783.97;5104608;28;20266;-70
2021/06/18 08:33:08;;;;;;;;;;;;;;;32.26;38.23;99785.91;5103418;28;19979;-70
2021/06/18 08:35:33;;;;;;;;;;;;;;;32.14;37.89;99780.88;5104809;28;20043;-70
2021/06/18 08:38:02;;;;;;;;;;;;;;;32.08;37.56;99780.16;5105234;28;20246;-70
2021/06/18 08:40:30;;;;;;;;;;;;;;;32.14;38.94;99777.31;5103734;28;20121;-70
2021/06/18 08:42:56;;;;;;;;;;;;;;;32.29;38.62;99777.06;5104297;28;20170;-70
2021/06/18 08:45:22;;;;;;;;;;;;;;;31.47;38.00;99780.41;5103493;28;19991;-70
2021/06/18 08:47:49;;;;;;;;;;;;;;;31.16;38.48;99788.28;5103364;28;19971;-70
2021/06/18 08:50:22;;;;;;;;;;;;;;;31.48;39.64;99787.50;5103894;28;19984;-70
2021/06/18 08:52:48;;;;;;;;;;;;;;;31.51;38.54;99786.91;5104587;28;20001;-70
2021/06/18 08:55:15;;;;;;;;;;;;;;;31.84;39.86;99770.50;5103447;28;20015;-70
2021/06/18 08:57:41;;;;;;;;;;;;;;;32.06;37.46;99778.84;5105043;28;19974;-70
2021/06/18 09:00:06;;;;;;;;;;;;;;;32.29;37.48;99772.41;5103921;28;20011;-70
2021/06/18 09:02:31;;;;;;;;;;;;;;;32.56;37.57;99771.56;5100230;28;19960;-70
2021/06/18 09:05:00;;;;;;;;;;;;;;;32.63;36.72;99765.66;5105188;28;19995;-70
2021/06/18 09:07:25;;;;;;;;;;;;;;;32.65;36.55;99756.03;5097559;28;20393;-70
2021/06/18 09:09:51;;;;;;;;;;;;;;;32.63;35.94;99763.75;5103397;28;19980;-70
2021/06/18 09:12:16;;;;;;;;;;;;;;;32.15;36.10;99754.28;5105455;28;19960;-70
2021/06/18 09:14:42;;;;;;;;;;;;;;;31.85;34.13;99747.47;5104094;28;19967;-70
2021/06/18 09:17:10;;;;;;;;;;;;;;;31.92;35.84;99759.66;5103972;28;20157;-70
2021/06/18 09:19:37;;;;;;;;;;;;;;;31.97;34.59;99751.34;5102629;28;19980;-70
2021/06/18 09:22:04;;;;;;;;;;;;;;;31.83;34.19;99746.97;5101785;28;19972;-70
2021/06/18 09:24:31;;;;;;;;;;;;;;;31.66;34.52;99742.84;5101420;28;20312;-70
2021/06/18 09:26:57;;;;;;;;;;;;;;;31.37;35.58;99748.56;5098733;28;19972;-69
2021/06/18 09:29:22;;;;;;;;;;;;;;;31.22;37.84;99748.81;5105124;28;20268;-70
2021/06/18 09:31:47;;;;;;;;;;;;;;;30.74;37.82;99754.41;5101894;28;20908;-70
2021/06/18 09:34:14;;;;;;;;;;;;;;;30.42;38.11;99751.53;5102582;28;19980;-70
2021/06/18 09:36:39;;;;;;;;;;;;;;;29.92;38.86;99753.69;5103762;28;20196;-70
2021/06/18 09:39:15;;;;;;;;;;;;;;;29.53;40.01;99746.44;5104364;28;20010;-70
2021/06/18 09:41:42;;;;;;;;;;;;;;;29.23;41.53;99755.66;5103128;28;20049;-70
2021/06/18 09:44:18;;;;;;;;;;;;;;;28.75;39.90;99759.22;5101831;28;19980;-70
2021/06/18 09:46:51;;;;;;;;;;;;;;;28.43;41.03;99754.19;5101529;28;19980;-70
2021/06/18 09:49:29;;;;;;;;;;;;;;;28.52;40.73;99752.53;5100694;28;19980;-70
2021/06/18 09:51:58;;;;;;;;;;;;;;;28.57;40.58;99753.31;5115885;28;20012;-70
2021/06/18 09:54:31;;;;;;;;;;;;;;;28.80;39.86;99757.25;5103952;28;19987;-70
2021/06/18 09:57:08;;;;;;;;;;;;;;;28.61;40.21;99759.00;5103557;28;20253;-70
2021/06/18 09:59:47;;;;;;;;;;;;;;;28.66;40.81;99745.34;5098661;28;20112;-70
2021/06/18 10:02:12;;;;;;;;;;;;;;;28.51;40.72;99748.16;5105765;28;19991;-69
2021/06/18 10:04:38;;;;;;;;;;;;;;;28.71;41.17;99758.13;5102231;28;19981;-69
2021/06/18 10:07:03;;;;;;;;;;;;;;;28.83;39.81;99754.00;5100131;28;20046;-70
2021/06/18 10:09:28;;;;;;;;;;;;;;;28.46;38.83;99742.75;5101911;28;19984;-70
2021/06/18 10:11:54;;;;;;;;;;;;;;;28.78;39.06;99751.28;5104256;28;19956;-69
2021/06/18 10:14:19;;;;;;;;;;;;;;;28.51;39.12;99745.44;5101197;28;20027;-70
2021/06/18 10:16:44;;;;;;;;;;;;;;;28.50;39.68;99749.25;5101073;28;20024;-70
2021/06/18 10:19:10;;;;;;;;;;;;;;;28.54;38.97;99742.97;5108698;28;20322;-69
2021/06/18 10:21:47;;;;;;;;;;;;;;;28.40;39.27;99741.94;5106161;28;19968;-70
2021/06/18 10:24:14;;;;;;;;;;;;;;;28.59;39.67;99732.03;5106025;28;20041;-70
2021/06/18 10:26:40;;;;;;;;;;;;;;;28.39;39.61;99734.06;5107333;28;20004;-70
2021/06/18 10:29:05;;;;;;;;;;;;;;;28.38;40.15;99730.53;5107485;28;20193;-70
2021/06/18 10:31:31;;;;;;;;;;;;;;;28.33;40.48;99727.00;5107236;28;19960;-70
2021/06/18 10:34:17;;;;;;;;;;;;;;;28.32;39.19;99725.38;5102705;28;20349;-69
2021/06/18 10:36:43;;;;;;;;;;;;;;;28.37;40.65;99720.72;5107296;28;20026;-72
2021/06/18 10:39:08;;;;;;;;;;;;;;;28.52;40.05;99717.91;5106711;28;20170;-70
2021/06/18 10:41:42;;;;;;;;;;;;;;;28.56;39.46;99720.91;5107060;28;19983;-69
2021/06/18 10:44:07;;;;;;;;;;;;;;;28.34;39.27;99718.56;5105410;28;20306;-69
2021/06/18 10:46:36;;;;;;;;;;;;;;;28.16;40.25;99721.88;5107046;28;20029;-70
2021/06/18 10:49:01;;;;;;;;;;;;;;;28.09;40.86;99716.72;5104718;28;19988;-69
2021/06/18 10:51:26;;;;;;;;;;;;;;;28.27;41.16;99712.59;5106353;28;20303;-69
2021/06/18 10:53:55;;;;;;;;;;;;;;;28.13;41.39;99708.81;5107213;28;20019;-70
2021/06/18 10:56:40;;;;;;;;;;;;;;;28.24;42.34;99703.09;5106403;28;20041;-70
2021/06/18 10:59:09;;;;;;;;;;;;;;;28.28;42.79;99698.72;5106502;28;19980;-68
2021/06/18 11:01:35;;;;;;;;;;;;;;;28.41;43.24;99702.72;5106997;28;20404;-69
2021/06/18 11:04:00;;;;;;;;;;;;;;;28.38;42.69;99699.75;5106175;28;19991;-69
2021/06/18 11:06:45;;;;;;;;;;;;;;;28.33;42.97;99699.78;5102954;28;19961;-70
2021/06/18 11:09:11;;;;;;;;;;;;;;;28.04;43.11;99694.94;5103492;28;20034;-70
2021/06/18 11:11:36;;;;;;;;;;;;;;;28.22;43.49;99691.63;5106277;28;20039;-69
2021/06/18 11:14:03;;;;;;;;;;;;;;;28.36;42.76;99699.22;5108127;28;19996;-69
2021/06/18 11:16:33;;;;;;;;;;;;;;;28.35;43.75;99687.50;5106064;28;19967;-70
2021/06/18 11:19:24;;;;;;;;;;;;;;;28.52;43.92;99684.41;5105144;28;20174;-70
2021/06/18 11:21:50;;;;;;;;;;;;;;;28.59;43.09;99682.19;5103644;28;19972;-70
2021/06/18 11:24:37;;;;;;;;;;;;;;;28.60;43.35;99676.47;5106479;28;20041;-69
2021/06/18 11:27:21;;;;;;;;;;;;;;;28.73;43.67;99674.22;5107671;28;20014;-70
2021/06/18 11:29:47;;;;;;;;;;;;;;;28.51;44.25;99675.44;5105260;28;20018;-69
2021/06/18 11:32:45;;;;;;;;;;;;;;;28.55;43.59;99681.13;5107899;28;19964;-69
2021/06/18 11:35:29;;;;;;;;;;;;;;;28.31;43.95;99683.72;5065582;28;20060;-70
2021/06/18 11:37:54;;;;;;;;;;;;;;;28.33;44.34;99669.81;5102377;28;19960;-69
2021/06/18 11:40:23;;;;;;;;;;;;;;;28.29;45.20;99672.28;5104137;28;20039;-69
2021/06/18 11:42:48;;;;;;;;;;;;;;;28.19;45.16;99670.41;5106196;28;19999;-69
2021/06/18 11:45:14;;;;;;;;;;;;;;;28.65;43.16;99669.34;5102000;28;20224;-70
2021/06/18 11:47:41;;;;;;;;;;;;;;;28.67;41.83;99670.69;5103245;28;19976;-70
2021/06/18 11:50:06;;;;;;;;;;;;;;;28.70;40.93;99667.41;5102195;28;20344;-69
2021/06/18 11:52:32;;;;;;;;;;;;;;;28.71;42.13;99660.88;5104984;28;20031;-69
2021/06/18 11:54:58;;;;;;;;;;;;;;;28.82;40.25;99659.69;5105498;28;20071;-69
2021/06/18 11:57:24;;;;;;;;;;;;;;;28.71;42.44;99665.50;5106889;28;20319;-70
2021/06/18 11:59:51;;;;;;;;;;;;;;;28.81;42.67;99659.97;5105167;28;19985;-69
2021/06/18 12:02:17;;;;;;;;;;;;;;;28.77;42.22;99662.47;5106067;28;19960;-70
2021/06/18 12:04:43;;;;;;;;;;;;;;;28.91;42.31;99662.66;5107716;28;20872;-70
2021/06/18 12:07:08;;;;;;;;;;;;;;;28.61;42.70;99655.50;5106592;28;20270;-70
2021/06/18 12:09:38;;;;;;;;;;;;;;;28.89;42.28;99662.13;5101775;28;19981;-69
2021/06/18 12:12:04;;;;;;;;;;;;;;;28.59;43.06;99644.06;5101919;28;19971;-70
2021/06/18 12:14:35;;;;;;;;;;;;;;;28.51;43.64;99663.72;5104353;28;19984;-69
2021/06/18 12:17:01;;;;;;;;;;;;;;;28.96;41.72;99653.63;5105344;28;19960;-69
2021/06/18 12:19:27;;;;;;;;;;;;;;;28.77;42.21;99653.47;5107900;28;20063;-70
2021/06/18 12:21:56;;;;;;;;;;;;;;;28.67;42.48;99662.53;5106112;28;19969;-70
2021/06/18 12:24:25;;;;;;;;;;;;;;;28.72;42.30;99651.59;5104705;28;19980;-70
2021/06/18 12:26:50;;;;;;;;;;;;;;;28.98;41.62;99648.69;5104457;28;19972;-70
2021/06/18 12:29:15;;;;;;;;;;;;;;;29.07;41.37;99650.53;5107886;28;20012;-70
2021/06/18 12:31:41;;;;;;;;;;;;;;;29.30;41.07;99650.91;5105672;28;19960;-70
2021/06/18 12:34:06;;;;;;;;;;;;;;;29.39;41.43;99652.72;5105690;28;20061;-70
2021/06/18 12:36:35;;;;;;;;;;;;;;;29.55;41.08;99648.75;5106829;28;20027;-70
2021/06/18 12:39:08;;;;;;;;;;;;;;;29.45;41.54;99648.84;5102438;28;19982;-69
2021/06/18 12:41:34;;;;;;;;;;;;;;;29.00;41.81;99647.31;5107004;28;20262;-69
2021/06/18 12:44:00;;;;;;;;;;;;;;;29.08;42.68;99640.44;5105276;28;20016;-69
2021/06/18 12:46:25;;;;;;;;;;;;;;;28.51;42.94;99629.13;5104723;28;19980;-69
2021/06/18 12:48:50;;;;;;;;;;;;;;;28.86;42.18;99652.59;5106082;28;20196;-69